Home   Weather   USA   McMinnville   Past weeks
Flag for USA

Past Weather in McMinnville, Tennessee, USA — Yesterday and Last 2 Weeks

Currently: 70 °F. Fog. (Weather station: Bethany, USA). See more current weather

Past Weather in McMinnville — Graph

°F

McMinnville Temperature Yesterday

Maximum temperature yesterday: 82 °F (at 4:35 pm)
Minimum temperature yesterday: 64 °F (at 4:15 am)
Average temperature yesterday: 73 °F

High & Low Weather Summary for the Past Weeks

 TemperatureHumidityPressure
High97 °F (Jul 14, 2:15 pm)100% (Jul 6, 2:15 am)30.23 "Hg (Jul 6, 2:15 am)
Low61 °F (Jul 11, 4:35 am)28% (Jul 14, 2:55 pm)29.82 "Hg (Jul 9, 4:15 pm)
Average78 °F72%30.04 "Hg
* Reported Jul 6 2:15 am — Jul 21 2:15 am, McMinnville. Weather by CustomWeather, © 2024

Note: Actual official high and low records may vary slightly from our data, if they occured in-between our weather recording intervals... More about our weather records

McMinnville Weather History for the Previous 24 Hours

Scroll right to see more
 ConditionsComfort  
Time TempWeatherWind HumidityBarometerVisibility
2:15 am
Sun, Jul 21
72 °FClear.No wind100%30.05 "Hg10 mi
1:55 am72 °FPassing clouds.No wind100%30.05 "Hg10 mi
1:30 am73 °FPassing clouds.No wind94%30.05 "Hg10 mi
1:15 am73 °FMostly cloudy.3 mph94%30.05 "Hg10 mi
12:55 am73 °FPartly cloudy.No wind94%30.05 "Hg10 mi
12:35 am73 °FMild.No wind94%30.05 "Hg10 mi
11:55 pm
Sat, Jul 20
72 °FMild.No wind100%30.05 "Hg10 mi
11:30 pm72 °FClear.No wind100%30.05 "Hg10 mi
11:15 pm73 °FClear.No wind94%30.05 "Hg10 mi
10:55 pm73 °FMild.No wind94%30.05 "Hg10 mi
10:35 pm73 °FMild.3 mph94%30.05 "Hg10 mi
10:15 pm73 °FOvercast.No wind94%30.06 "Hg10 mi
9:55 pm75 °FMild.No wind89%30.06 "Hg10 mi
9:35 pm73 °FMild.No wind94%30.06 "Hg10 mi
9:15 pm73 °FMild.No wind94%30.06 "Hg10 mi
8:55 pm73 °FMild.No wind94%30.06 "Hg10 mi
8:35 pm75 °FMild.No wind89%30.05 "Hg10 mi
8:15 pm75 °FPassing clouds.No wind89%30.05 "Hg10 mi
7:55 pm75 °FSunny.No wind89%30.05 "Hg10 mi
7:35 pm77 °FSunny.No wind83%30.05 "Hg10 mi
6:55 pm81 °FSunny.No wind74%30.02 "Hg10 mi
6:35 pm81 °FSunny.3 mph74%30.02 "Hg10 mi
6:15 pm81 °FPassing clouds.5 mph74%30.02 "Hg10 mi
5:35 pm82 °FMostly cloudy.6 mph66%30.02 "Hg10 mi
5:15 pm81 °FBroken clouds.6 mph70%30.03 "Hg10 mi
4:55 pm82 °FPartly sunny.7 mph66%30.04 "Hg10 mi
4:35 pm82 °FBroken clouds.6 mph66%30.04 "Hg10 mi
4:15 pm81 °FMostly cloudy.6 mph66%30.05 "Hg10 mi
2:35 pm79 °FSunny.8 mph74%30.06 "Hg10 mi
1:55 pm73 °FSunny.3 mph83%30.08 "Hg9 mi
1:30 pm73 °FPassing clouds.7 mph83%30.09 "Hg10 mi
1:15 pm72 °FBroken clouds.7 mph88%30.10 "Hg9 mi
12:55 pm77 °FMostly cloudy.17 mph74%30.10 "Hg10 mi
12:35 pm81 °FBroken clouds.6 mph66%30.09 "Hg10 mi
12:15 pm81 °FBroken clouds.No wind66%30.09 "Hg10 mi
11:35 am81 °FOvercast.8 mph66%30.09 "Hg10 mi
10:55 am81 °FBroken clouds.6 mph70%30.10 "Hg10 mi
10:35 am79 °FMore clouds than sun.8 mph70%30.11 "Hg10 mi
10:15 am81 °FPartly sunny.6 mph74%30.10 "Hg10 mi
9:55 am77 °FPartly sunny.5 mph79%30.10 "Hg10 mi
9:30 am77 °FBroken clouds.No wind83%30.11 "Hg10 mi
8:55 am73 °FMostly cloudy.No wind89%30.11 "Hg10 mi
8:15 am70 °FBroken clouds.No wind100%30.10 "Hg9 mi
7:55 am70 °FMore clouds than sun.No wind100%30.10 "Hg9 mi
7:30 am70 °FMostly cloudy.No wind94%30.10 "Hg7 mi
7:15 am68 °FFog.No wind100%30.10 "Hg1 mi
6:55 am68 °FMostly cloudy.5 mph100%30.10 "Hg8 mi
6:35 am68 °FCloudy.No wind100%30.09 "Hg7 mi
6:15 am68 °FFog.No wind100%30.08 "Hg4 mi
5:55 am66 °FCloudy.No wind100%30.08 "Hg8 mi
5:35 am66 °FFog.No wind100%30.08 "Hg6 mi
5:15 am66 °FMostly cloudy.No wind100%30.08 "Hg7 mi
4:55 am66 °FFog.No wind94%30.08 "Hg2 mi
4:15 am64 °FFog.No wind100%30.06 "Hg0 mi
Weather by CustomWeather, © 2024

See weather overview